createdAt,value
2018-01-07T00:01:28.309Z,101063.50
2018-01-07T00:03:54.273Z,101063.72
2018-01-07T00:06:20.256Z,101069.37
2018-01-07T00:08:46.245Z,101073.87
2018-01-07T00:11:12.220Z,101078.45
2018-01-07T00:13:38.204Z,101084.63
2018-01-07T00:16:04.204Z,101082.00
2018-01-07T00:18:30.166Z,101089.66
2018-01-07T00:20:56.144Z,101085.50
2018-01-07T00:23:22.116Z,101093.34
2018-01-07T00:25:48.071Z,101093.20
2018-01-07T00:28:14.031Z,101098.53
2018-01-07T00:30:40.011Z,101102.99
2018-01-07T00:33:05.967Z,101107.08
2018-01-07T00:35:31.946Z,101106.62
2018-01-07T00:37:57.937Z,101106.83
2018-01-07T00:40:23.912Z,101109.09
2018-01-07T00:42:49.925Z,101112.98
2018-01-07T00:45:15.889Z,101118.84
2018-01-07T00:47:41.845Z,101114.95
2018-01-07T00:50:07.809Z,101110.21
2018-01-07T00:52:33.839Z,101119.53
2018-01-07T00:54:59.855Z,101122.17
2018-01-07T00:57:25.813Z,101125.97
2018-01-07T00:59:51.808Z,101131.69
2018-01-07T01:02:17.824Z,101139.45
2018-01-07T01:04:43.816Z,101149.73
2018-01-07T01:07:09.784Z,101153.22
2018-01-07T01:09:35.785Z,101153.01
2018-01-07T01:12:01.770Z,101156.11
2018-01-07T01:14:27.737Z,101158.48
2018-01-07T01:16:53.709Z,101167.73
2018-01-07T01:19:19.699Z,101169.58
2018-01-07T01:21:45.646Z,101177.59
2018-01-07T01:24:11.629Z,101182.87
2018-01-07T01:26:37.627Z,101186.81
2018-01-07T01:29:03.614Z,101191.11
2018-01-07T01:31:29.628Z,101200.14
2018-01-07T01:33:55.602Z,101203.39
2018-01-07T01:36:21.566Z,101202.86
2018-01-07T01:38:47.540Z,101214.42
2018-01-07T01:41:13.517Z,101207.53
2018-01-07T01:43:39.483Z,101216.11
2018-01-07T01:46:05.442Z,101220.42
2018-01-07T01:48:31.411Z,101220.34
2018-01-07T01:50:57.394Z,101225.20
2018-01-07T01:53:23.404Z,101238.69
2018-01-07T01:55:49.391Z,101240.49
2018-01-07T01:58:15.348Z,101241.86
2018-01-07T02:00:41.338Z,101244.75
2018-01-07T02:03:08.445Z,101249.14
2018-01-07T02:05:34.397Z,101252.37
2018-01-07T02:08:00.360Z,101250.97
2018-01-07T02:10:26.326Z,101249.71
2018-01-07T02:12:52.273Z,101255.70
2018-01-07T02:15:18.275Z,101254.63
2018-01-07T02:17:44.235Z,101258.86
2018-01-07T02:20:10.228Z,101263.81
2018-01-07T02:22:36.206Z,101270.12
2018-01-07T02:25:02.313Z,101266.89
2018-01-07T02:27:28.269Z,101274.69
2018-01-07T02:29:54.219Z,101283.56
2018-01-07T02:32:20.176Z,101288.69
2018-01-07T02:34:46.138Z,101297.00
2018-01-07T02:37:12.103Z,101290.59
2018-01-07T02:39:38.099Z,101301.30
2018-01-07T02:42:04.083Z,101305.94
2018-01-07T02:44:30.053Z,101311.51
2018-01-07T02:46:56.045Z,101313.91
2018-01-07T02:49:22.015Z,101314.95
2018-01-07T02:51:47.961Z,101316.20
2018-01-07T02:54:13.942Z,101321.60
2018-01-07T02:56:39.902Z,101320.48
2018-01-07T02:59:05.864Z,101318.01
2018-01-07T03:01:31.828Z,101318.77
2018-01-07T03:03:57.847Z,101323.16
2018-01-07T03:06:23.798Z,101334.45
2018-01-07T03:08:49.786Z,101329.57
2018-01-07T03:11:15.784Z,101336.74
2018-01-07T03:13:41.786Z,101339.44
2018-01-07T03:16:07.742Z,101340.98
2018-01-07T03:18:33.759Z,101346.77
2018-01-07T03:20:59.740Z,101359.13
2018-01-07T03:23:25.724Z,101352.30
2018-01-07T03:25:51.700Z,101351.88
2018-01-07T03:28:17.679Z,101354.71
2018-01-07T03:30:43.643Z,101346.31
2018-01-07T03:33:09.609Z,101347.03
2018-01-07T03:35:35.593Z,101345.79
2018-01-07T03:38:01.599Z,101348.09
2018-01-07T03:40:27.562Z,101355.37
2018-01-07T03:42:53.600Z,101347.80
2018-01-07T03:45:19.552Z,101356.80
2018-01-07T03:47:45.525Z,101356.31
2018-01-07T03:50:11.518Z,101357.14
2018-01-07T03:52:37.473Z,101354.77
2018-01-07T03:55:03.467Z,101364.19
2018-01-07T03:57:29.414Z,101364.48
2018-01-07T03:59:55.363Z,101363.03
2018-01-07T04:02:21.348Z,101370.55
2018-01-07T04:04:47.310Z,101376.73
2018-01-07T04:07:13.294Z,101373.69
2018-01-07T04:09:39.250Z,101367.41
2018-01-07T04:12:05.219Z,101372.70
2018-01-07T04:14:31.192Z,101363.81
2018-01-07T04:16:57.149Z,101361.59
2018-01-07T04:19:23.134Z,101359.61
2018-01-07T04:21:49.125Z,101364.66
2018-01-07T04:24:15.086Z,101369.86
2018-01-07T04:26:41.065Z,101382.30
2018-01-07T04:29:07.030Z,101384.22
2018-01-07T04:31:32.990Z,101383.25
2018-01-07T04:33:58.938Z,101385.13
2018-01-07T04:36:24.919Z,101383.17
2018-01-07T04:38:50.861Z,101384.27
2018-01-07T04:41:16.853Z,101377.28
2018-01-07T04:43:42.833Z,101382.45
2018-01-07T04:46:08.822Z,101387.34
2018-01-07T04:48:34.779Z,101384.97
2018-01-07T04:51:00.766Z,101391.59
2018-01-07T04:53:26.727Z,101392.16
2018-01-07T04:55:52.694Z,101392.63
2018-01-07T04:58:18.659Z,101393.41
2018-01-07T05:00:44.630Z,101400.77
2018-01-07T05:03:10.619Z,101401.70
2018-01-07T05:05:36.580Z,101407.66
2018-01-07T05:08:02.582Z,101404.98
2018-01-07T05:10:28.586Z,101406.87
2018-01-07T05:12:54.557Z,101398.92
2018-01-07T05:15:20.548Z,101408.00
2018-01-07T05:17:46.547Z,101411.73
2018-01-07T05:20:12.501Z,101419.20
2018-01-07T05:22:38.466Z,101427.94
2018-01-07T05:25:04.423Z,101428.81
2018-01-07T05:27:30.392Z,101426.84
2018-01-07T05:29:56.348Z,101435.25
2018-01-07T05:32:22.357Z,101430.23
2018-01-07T05:34:48.307Z,101437.63
2018-01-07T05:37:14.267Z,101440.75
2018-01-07T05:39:40.214Z,101443.05
2018-01-07T05:42:06.175Z,101449.73
2018-01-07T05:44:32.163Z,101453.04
2018-01-07T05:46:58.129Z,101455.98
2018-01-07T05:49:24.094Z,101463.97
2018-01-07T05:51:50.058Z,101467.28
2018-01-07T05:54:16.046Z,101472.52
2018-01-07T05:56:42.062Z,101474.70
2018-01-07T05:59:08.059Z,101479.03
2018-01-07T06:01:34.045Z,101474.33
2018-01-07T06:04:00.018Z,101484.95
2018-01-07T06:06:25.978Z,101483.41
2018-01-07T06:08:51.939Z,101487.36
2018-01-07T06:11:17.908Z,101497.53
2018-01-07T06:13:43.861Z,101495.98
2018-01-07T06:16:09.822Z,101508.34
2018-01-07T06:18:35.789Z,101510.23
2018-01-07T06:21:01.749Z,101522.30
2018-01-07T06:23:27.814Z,101526.42
2018-01-07T06:25:53.774Z,101526.62
2018-01-07T06:28:19.746Z,101524.03
2018-01-07T06:30:45.695Z,101525.16
2018-01-07T06:33:11.667Z,101524.78
2018-01-07T06:35:37.616Z,101533.80
2018-01-07T06:38:03.604Z,101532.97
2018-01-07T06:40:29.579Z,101539.19
2018-01-07T06:42:55.548Z,101541.57
2018-01-07T06:45:21.526Z,101551.71
2018-01-07T06:47:47.513Z,101563.14
2018-01-07T06:50:13.494Z,101565.78
2018-01-07T06:52:39.488Z,101567.59
2018-01-07T06:55:05.443Z,101560.88
2018-01-07T06:57:31.427Z,101570.99
2018-01-07T06:59:57.492Z,101574.12
2018-01-07T07:02:23.443Z,101578.58
2018-01-07T07:04:49.396Z,101581.97
2018-01-07T07:07:15.347Z,101595.66
2018-01-07T07:09:41.343Z,101604.00
2018-01-07T07:12:07.315Z,101613.92
2018-01-07T07:14:33.296Z,101616.60
2018-01-07T07:16:59.290Z,101615.96
2018-01-07T07:19:25.252Z,101622.15
2018-01-07T07:21:51.232Z,101632.03
2018-01-07T07:24:17.232Z,101643.09
2018-01-07T07:26:43.203Z,101641.20
2018-01-07T07:29:09.180Z,101650.86
2018-01-07T07:31:35.159Z,101656.05
2018-01-07T07:34:01.127Z,101659.48
2018-01-07T07:36:27.082Z,101652.32
2018-01-07T07:38:53.065Z,101658.70
2018-01-07T07:41:19.033Z,101657.41
2018-01-07T07:43:45.000Z,101661.75
2018-01-07T07:46:10.993Z,101674.01
2018-01-07T07:48:36.936Z,101667.45
2018-01-07T07:51:02.913Z,101667.27
2018-01-07T07:53:28.888Z,101667.19
2018-01-07T07:55:54.863Z,101660.99
2018-01-07T07:58:20.834Z,101662.17
2018-01-07T08:00:46.804Z,101679.12
2018-01-07T08:03:12.795Z,101687.81
2018-01-07T08:05:38.791Z,101683.31
2018-01-07T08:08:04.737Z,101685.35
2018-01-07T08:10:30.696Z,101681.72
2018-01-07T08:12:56.660Z,101688.36
2018-01-07T08:15:22.645Z,101697.08
2018-01-07T08:17:48.600Z,101704.77
2018-01-07T08:20:14.595Z,101707.53
2018-01-07T08:22:40.573Z,101708.02
2018-01-07T08:25:06.546Z,101715.45
2018-01-07T08:27:35.962Z,101724.95
2018-01-07T08:30:01.940Z,101730.64
2018-01-07T08:32:27.963Z,101734.13
2018-01-07T08:34:53.954Z,101739.50
2018-01-07T08:37:19.966Z,101743.30
2018-01-07T08:39:45.960Z,101737.36
2018-01-07T08:42:11.964Z,101744.02
2018-01-07T08:44:38.712Z,101747.72
2018-01-07T08:47:04.655Z,101741.08
2018-01-07T08:49:30.622Z,101751.16
2018-01-07T08:51:56.580Z,101752.89
2018-01-07T08:54:22.574Z,101759.39
2018-01-07T08:56:48.551Z,101763.98
2018-01-07T08:59:14.532Z,101760.73
2018-01-07T09:01:40.514Z,101767.07
2018-01-07T09:04:06.515Z,101772.86
2018-01-07T09:06:32.508Z,101779.65
2018-01-07T09:09:02.989Z,101787.38
2018-01-07T09:11:28.986Z,101787.11
2018-01-07T09:13:54.962Z,101785.62
2018-01-07T09:16:20.955Z,101788.91
2018-01-07T09:18:48.010Z,101791.19
2018-01-07T09:21:14.048Z,101786.76
2018-01-07T09:23:40.024Z,101792.17
2018-01-07T09:26:05.996Z,101799.85
2018-01-07T09:28:31.995Z,101800.14
2018-01-07T09:30:57.958Z,101802.66
2018-01-07T09:33:23.966Z,101803.00
2018-01-07T09:35:49.928Z,101804.10
2018-01-07T09:38:15.925Z,101808.77
2018-01-07T09:40:41.908Z,101814.73
2018-01-07T09:43:07.861Z,101818.95
2018-01-07T09:45:33.823Z,101815.41
2018-01-07T09:47:59.775Z,101821.88
2018-01-07T09:50:25.748Z,101824.50
2018-01-07T09:52:51.744Z,101826.33
2018-01-07T09:55:17.711Z,101828.69
2018-01-07T09:57:43.673Z,101823.48
2018-01-07T10:00:09.649Z,101823.63
2018-01-07T10:02:35.829Z,101827.88
2018-01-07T10:05:01.819Z,101829.84
2018-01-07T10:07:27.813Z,101827.63
2018-01-07T10:09:53.814Z,101825.63
2018-01-07T10:12:19.788Z,101827.77
2018-01-07T10:14:45.880Z,101837.83
2018-01-07T10:17:11.957Z,101845.98
2018-01-07T10:19:37.969Z,101850.20
2018-01-07T10:22:03.998Z,101850.69
2018-01-07T10:24:29.951Z,101851.59
2018-01-07T10:26:55.958Z,101853.03
2018-01-07T10:29:21.924Z,101858.62
2018-01-07T10:31:47.916Z,101861.84
2018-01-07T10:34:14.027Z,101856.67
2018-01-07T10:36:40.015Z,101858.72
2018-01-07T10:39:05.993Z,101855.59
2018-01-07T10:41:32.006Z,101850.27
2018-01-07T10:43:57.990Z,101853.55
2018-01-07T10:46:23.944Z,101845.68
2018-01-07T10:48:49.953Z,101841.80
2018-01-07T10:51:15.941Z,101844.09
2018-01-07T10:53:41.910Z,101851.20
2018-01-07T10:56:07.895Z,101850.13
2018-01-07T10:58:33.899Z,101855.23
2018-01-07T11:00:59.888Z,101857.02
2018-01-07T11:03:25.927Z,101856.11
2018-01-07T11:05:51.988Z,101865.72
2018-01-07T11:08:17.928Z,101865.87
2018-01-07T11:10:43.922Z,101865.68
2018-01-07T11:13:09.882Z,101864.42
2018-01-07T11:15:35.840Z,101857.37
2018-01-07T11:18:01.800Z,101862.81
2018-01-07T11:20:27.805Z,101860.09
2018-01-07T11:22:53.749Z,101862.59
2018-01-07T11:25:19.735Z,101857.88
2018-01-07T11:27:45.716Z,101853.08
2018-01-07T11:30:11.751Z,101847.69
2018-01-07T11:32:37.713Z,101848.72
2018-01-07T11:35:03.660Z,101851.21
2018-01-07T11:37:29.746Z,101859.97
2018-01-07T11:39:55.724Z,101853.91
2018-01-07T11:42:21.683Z,101848.50
2018-01-07T11:44:47.668Z,101846.23
2018-01-07T11:47:13.635Z,101848.95
2018-01-07T11:49:39.612Z,101848.70
2018-01-07T11:52:05.563Z,101842.53
2018-01-07T11:54:31.527Z,101846.08
2018-01-07T11:56:57.526Z,101839.88
2018-01-07T11:59:24.520Z,101838.67
2018-01-07T12:01:50.562Z,101837.80
2018-01-07T12:04:16.507Z,101840.19
2018-01-07T12:06:42.600Z,101840.77
2018-01-07T12:09:09.638Z,101832.76
2018-01-07T12:11:35.691Z,101827.00
2018-01-07T12:14:01.650Z,101836.05
2018-01-07T12:16:27.607Z,101828.65
2018-01-07T12:18:53.603Z,101826.95
2018-01-07T12:21:19.687Z,101824.15
2018-01-07T12:23:45.673Z,101825.40
2018-01-07T12:26:11.714Z,101819.69
2018-01-07T12:28:37.736Z,101815.80
2018-01-07T12:31:03.720Z,101813.70
2018-01-07T12:33:29.747Z,101810.41
2018-01-07T12:35:55.708Z,101814.06
2018-01-07T12:38:21.701Z,101813.45
2018-01-07T12:40:47.654Z,101806.06
2018-01-07T12:43:13.648Z,101802.77
2018-01-07T12:45:41.649Z,101803.60
2018-01-07T12:48:07.622Z,101802.73
2018-01-07T12:50:33.590Z,101799.74
2018-01-07T12:52:59.549Z,101790.48
2018-01-07T12:55:25.553Z,101788.86
2018-01-07T12:57:55.352Z,101791.06
2018-01-07T13:00:21.346Z,101791.78
2018-01-07T13:02:47.332Z,101789.20
2018-01-07T13:05:13.290Z,101784.23
2018-01-07T13:07:41.324Z,101793.53
2018-01-07T13:10:09.132Z,101788.29
2018-01-07T13:12:38.694Z,101780.80
2018-01-07T13:15:04.765Z,101784.52
2018-01-07T13:17:30.729Z,101779.51
2018-01-07T13:19:58.722Z,101785.36
2018-01-07T13:22:24.725Z,101775.50
2018-01-07T13:24:50.688Z,101769.16
2018-01-07T13:27:16.651Z,101772.27
2018-01-07T13:29:42.792Z,101772.55
2018-01-07T13:32:08.808Z,101771.04
2018-01-07T13:34:35.357Z,101775.58
2018-01-07T13:37:01.345Z,101770.62
2018-01-07T13:39:27.304Z,101776.09
2018-01-07T13:41:53.247Z,101776.95
2018-01-07T13:44:19.336Z,101775.52
2018-01-07T13:46:45.342Z,101790.67
2018-01-07T13:49:11.444Z,101783.70
2018-01-07T13:51:37.864Z,101782.63
2018-01-07T13:54:03.848Z,101784.26
2018-01-07T13:56:29.833Z,101792.30
2018-01-07T13:58:55.802Z,101785.95
2018-01-07T14:01:21.810Z,101791.26
2018-01-07T14:03:47.784Z,101789.87
2018-01-07T14:06:13.887Z,101793.96
2018-01-07T14:08:39.918Z,101794.67
2018-01-07T14:11:05.911Z,101788.66
2018-01-07T14:13:31.917Z,101790.41
2018-01-07T14:15:58.108Z,101795.72
2018-01-07T14:18:24.126Z,101798.81
2018-01-07T14:20:50.162Z,101796.05
2018-01-07T14:23:16.133Z,101799.90
2018-01-07T14:25:42.126Z,101803.09
2018-01-07T14:28:08.083Z,101804.47
2018-01-07T14:30:34.113Z,101812.20
2018-01-07T14:33:00.071Z,101813.75
2018-01-07T14:35:26.129Z,101817.45
2018-01-07T14:37:52.126Z,101819.59
2018-01-07T14:40:18.107Z,101814.75
2018-01-07T14:42:44.067Z,101811.02
2018-01-07T14:45:10.028Z,101812.41
2018-01-07T14:47:35.999Z,101815.05
2018-01-07T14:50:02.008Z,101817.26
2018-01-07T14:52:27.989Z,101814.67
2018-01-07T14:54:54.004Z,101817.02
2018-01-07T14:57:19.957Z,101813.33
2018-01-07T14:59:45.931Z,101822.83
2018-01-07T15:02:11.912Z,101824.27
2018-01-07T15:04:37.888Z,101823.97
2018-01-07T15:07:03.905Z,101826.93
2018-01-07T15:09:29.952Z,101828.11
2018-01-07T15:11:55.923Z,101829.61
2018-01-07T15:14:21.926Z,101824.20
2018-01-07T15:16:47.905Z,101826.61
2018-01-07T15:19:13.930Z,101837.01
2018-01-07T15:21:39.931Z,101833.42
2018-01-07T15:24:05.912Z,101840.48
2018-01-07T15:26:31.898Z,101843.47
2018-01-07T15:28:57.922Z,101844.48
2018-01-07T15:31:23.910Z,101851.59
2018-01-07T15:33:49.915Z,101857.16
2018-01-07T15:36:15.895Z,101861.00
2018-01-07T15:38:41.858Z,101860.22
2018-01-07T15:41:07.820Z,101868.57
2018-01-07T15:43:33.881Z,101863.23
2018-01-07T15:45:59.867Z,101879.56
2018-01-07T15:48:25.835Z,101871.92
2018-01-07T15:50:51.809Z,101873.06
2018-01-07T15:53:17.791Z,101867.54
2018-01-07T15:55:43.803Z,101861.17
2018-01-07T15:58:09.793Z,101865.50
2018-01-07T16:00:35.803Z,101866.23
2018-01-07T16:03:01.810Z,101870.30
2018-01-07T16:05:27.811Z,101869.00
2018-01-07T16:07:53.784Z,101876.34
2018-01-07T16:10:19.820Z,101884.94
2018-01-07T16:12:50.654Z,101885.77
2018-01-07T16:15:16.841Z,101888.51
2018-01-07T16:17:42.798Z,101886.59
2018-01-07T16:20:08.770Z,101893.50
2018-01-07T16:22:34.741Z,101893.30
2018-01-07T16:25:00.700Z,101899.74
2018-01-07T16:27:26.777Z,101893.41
2018-01-07T16:29:52.787Z,101889.44
2018-01-07T16:32:18.786Z,101888.33
2018-01-07T16:34:44.778Z,101891.56
2018-01-07T16:37:10.753Z,101895.98
2018-01-07T16:39:36.729Z,101894.27
2018-01-07T16:42:02.817Z,101896.60
2018-01-07T16:44:28.781Z,101898.47
2018-01-07T16:46:54.859Z,101902.22
2018-01-07T16:49:20.919Z,101895.94
2018-01-07T16:51:46.944Z,101904.13
2018-01-07T16:54:12.956Z,101901.13
2018-01-07T16:56:38.920Z,101902.46
2018-01-07T16:59:04.986Z,101898.20
2018-01-07T17:01:30.962Z,101906.70
2018-01-07T17:03:57.025Z,101907.92
2018-01-07T17:06:23.003Z,101906.06
2018-01-07T17:08:50.074Z,101903.23
2018-01-07T17:11:16.068Z,101909.80
2018-01-07T17:13:42.031Z,101914.61
2018-01-07T17:16:08.096Z,101918.16
2018-01-07T17:18:34.113Z,101917.91
2018-01-07T17:21:00.142Z,101923.56
2018-01-07T17:23:26.117Z,101923.19
2018-01-07T17:25:52.088Z,101922.38
2018-01-07T17:28:18.124Z,101925.50
2018-01-07T17:30:44.234Z,101928.05
2018-01-07T17:33:10.222Z,101923.48
2018-01-07T17:35:36.278Z,101916.15
2018-01-07T17:38:02.194Z,101924.23
2018-01-07T17:40:28.159Z,101926.47
2018-01-07T17:42:54.246Z,101920.28
2018-01-07T17:45:20.221Z,101917.21
2018-01-07T17:47:46.231Z,101925.52
2018-01-07T17:50:12.296Z,101927.08
2018-01-07T17:52:38.283Z,101927.61
2018-01-07T17:55:04.359Z,101928.34
2018-01-07T17:57:30.358Z,101933.48
2018-01-07T17:59:56.564Z,101934.33
2018-01-07T18:02:22.572Z,101944.31
2018-01-07T18:04:48.608Z,101946.36
2018-01-07T18:07:14.864Z,101951.72
2018-01-07T18:09:41.200Z,101960.41
2018-01-07T18:12:07.551Z,101958.25
2018-01-07T18:14:33.614Z,101968.75
2018-01-07T18:16:59.583Z,101965.69
2018-01-07T18:19:25.539Z,101966.35
2018-01-07T18:21:51.572Z,101966.86
2018-01-07T18:24:17.587Z,101969.58
2018-01-07T18:26:43.579Z,101971.39
2018-01-07T18:29:09.596Z,101974.92
2018-01-07T18:31:35.681Z,101974.51
2018-01-07T18:34:01.671Z,101976.13
2018-01-07T18:36:27.698Z,101970.72
2018-01-07T18:38:53.665Z,101974.67
2018-01-07T18:41:19.661Z,101976.61
2018-01-07T18:43:45.946Z,101975.05
2018-01-07T18:46:12.125Z,101976.41
2018-01-07T18:48:38.107Z,101971.38
2018-01-07T18:51:04.140Z,101978.72
2018-01-07T18:53:30.185Z,101978.75
2018-01-07T18:55:56.179Z,101980.20
2018-01-07T18:58:22.193Z,101987.78
2018-01-07T19:00:48.184Z,101980.98
2018-01-07T19:03:14.197Z,101981.89
2018-01-07T19:05:40.177Z,101989.01
2018-01-07T19:08:06.173Z,101990.71
2018-01-07T19:10:32.148Z,101989.32
2018-01-07T19:12:58.388Z,101992.65
2018-01-07T19:15:24.399Z,101991.86
2018-01-07T19:17:50.391Z,101995.58
2018-01-07T19:20:16.485Z,101997.55
2018-01-07T19:22:42.921Z,101994.01
2018-01-07T19:25:09.388Z,101995.29
2018-01-07T19:27:35.582Z,101996.34
2018-01-07T19:30:01.697Z,101996.97
2018-01-07T19:32:27.812Z,101995.40
2018-01-07T19:34:53.833Z,101997.45
2018-01-07T19:37:20.339Z,101992.66
2018-01-07T19:39:46.335Z,102000.99
2018-01-07T19:42:12.551Z,101997.20
2018-01-07T19:44:38.612Z,101994.98
2018-01-07T19:47:04.794Z,101995.09
2018-01-07T19:49:31.057Z,101991.61
2018-01-07T19:51:57.809Z,101993.41
2018-01-07T19:54:25.444Z,101988.12
2018-01-07T19:56:51.763Z,101991.74
2018-01-07T19:59:18.080Z,101989.10
2018-01-07T20:01:44.471Z,101988.86
2018-01-07T20:04:10.535Z,101986.47
2018-01-07T20:06:36.750Z,101992.10
2018-01-07T20:09:03.248Z,101986.88
2018-01-07T20:11:29.564Z,101984.83
2018-01-07T20:13:55.853Z,101996.66
2018-01-07T20:16:21.870Z,101988.48
2018-01-07T20:18:48.186Z,101991.61
2018-01-07T20:21:14.288Z,101994.98
2018-01-07T20:23:40.280Z,101995.81
2018-01-07T20:26:06.343Z,101994.91
2018-01-07T20:28:32.323Z,101997.73
2018-01-07T20:30:58.308Z,101995.29
2018-01-07T20:33:24.583Z,101999.84
2018-01-07T20:35:50.662Z,101995.27
2018-01-07T20:38:16.889Z,101995.71
2018-01-07T20:40:43.066Z,101988.12
2018-01-07T20:43:09.164Z,101986.81
2018-01-07T20:45:35.138Z,101983.27
2018-01-07T20:48:01.113Z,101990.16
2018-01-07T20:50:27.103Z,101987.89
2018-01-07T20:52:54.253Z,101987.66
2018-01-07T20:55:20.291Z,101988.42
2018-01-07T20:57:46.315Z,101983.34
2018-01-07T21:00:12.304Z,101983.81
2018-01-07T21:02:38.345Z,101980.41
2018-01-07T21:05:04.359Z,101984.30
2018-01-07T21:07:31.406Z,101974.51
2018-01-07T21:09:57.870Z,101985.84
2018-01-07T21:12:23.883Z,101983.02
2018-01-07T21:14:49.843Z,101985.98
2018-01-07T21:17:15.830Z,101991.36
2018-01-07T21:19:42.659Z,101980.41
2018-01-07T21:22:08.738Z,101983.55
2018-01-07T21:24:34.707Z,101981.64
2018-01-07T21:27:01.719Z,101987.06
2018-01-07T21:29:27.705Z,101983.82
2018-01-07T21:31:53.818Z,101979.78
2018-01-07T21:34:19.853Z,101983.57
2018-01-07T21:36:45.878Z,101979.54
2018-01-07T21:39:11.922Z,101980.55
2018-01-07T21:41:37.907Z,101980.41
2018-01-07T21:44:03.978Z,101973.18
2018-01-07T21:46:29.931Z,101968.91
2018-01-07T21:48:55.919Z,101965.56
2018-01-07T21:51:22.970Z,101962.92
2018-01-07T21:53:48.986Z,101961.19
2018-01-07T21:56:14.942Z,101958.30
2018-01-07T21:58:40.939Z,101953.90
2018-01-07T22:01:06.894Z,101950.14
2018-01-07T22:03:32.912Z,101961.29
2018-01-07T22:05:58.878Z,101951.45
2018-01-07T22:08:24.851Z,101955.66
2018-01-07T22:10:50.832Z,101950.19
2018-01-07T22:13:17.846Z,101949.78
2018-01-07T22:15:43.819Z,101948.80
2018-01-07T22:18:09.782Z,101950.60
2018-01-07T22:20:35.749Z,101948.58
2018-01-07T22:23:01.724Z,101947.53
2018-01-07T22:25:27.709Z,101948.27
2018-01-07T22:27:53.704Z,101956.25
2018-01-07T22:30:19.690Z,101954.69
2018-01-07T22:32:46.767Z,101952.77
2018-01-07T22:35:13.588Z,101948.74
2018-01-07T22:37:39.794Z,101957.81
2018-01-07T22:40:05.815Z,101954.74
2018-01-07T22:42:31.848Z,101956.37
2018-01-07T22:44:58.036Z,101953.13
2018-01-07T22:47:24.078Z,101954.80
2018-01-07T22:49:50.726Z,101954.98
2018-01-07T22:52:17.033Z,101947.80
2018-01-07T22:54:43.226Z,101953.60
2018-01-07T22:57:09.471Z,101951.52
2018-01-07T22:59:35.643Z,101948.67
2018-01-07T23:02:02.053Z,101949.55
2018-01-07T23:04:28.322Z,101954.75
2018-01-07T23:06:54.918Z,101953.66
2018-01-07T23:09:20.928Z,101947.78
2018-01-07T23:11:47.630Z,101945.56
2018-01-07T23:14:13.742Z,101947.10
2018-01-07T23:16:40.130Z,101951.97
2018-01-07T23:19:06.408Z,101946.22
2018-01-07T23:21:32.400Z,101943.34
2018-01-07T23:23:58.454Z,101948.52
2018-01-07T23:26:24.434Z,101947.60
2018-01-07T23:28:50.412Z,101953.19
2018-01-07T23:31:16.379Z,101946.23
2018-01-07T23:33:42.451Z,101939.91
2018-01-07T23:36:08.516Z,101941.23
2018-01-07T23:38:34.502Z,101934.28
2018-01-07T23:41:00.497Z,101934.87
2018-01-07T23:43:26.462Z,101929.42
2018-01-07T23:45:52.436Z,101936.07
2018-01-07T23:48:18.406Z,101931.86
2018-01-07T23:50:44.370Z,101936.69
2018-01-07T23:53:10.353Z,101922.03
2018-01-07T23:55:36.292Z,101922.17
2018-01-07T23:58:02.249Z,101926.55
